Data for 02/02/2015

Time Sea-Level Adjusted Pressure Absolute Pressure Temperature Relative Humidity Dew Point   
(mb) (inHg) (mb) (inHg) (C) (F) (%) (C) (F)
00:05 1015 29.97 844 24.92 -1.7 28.9 81 -4.6 23.7
00:10 1015 29.97 844 24.92 -1.5 29.3 78 -4.9 23.2
00:15 1015 29.97 844 24.92 -1.2 29.8 77 -4.8 23.4
00:20 1015 29.97 844 24.92 -0.9 30.3 74 -4.9 23.1
00:25 1015 29.97 844 24.92 -0.8 30.5 75 -4.7 23.5
00:30 1015 29.97 844 24.92 -0.7 30.7 73 -5 22.9
00:35 1015 29.97 844 24.92 -0.5 31.1 71 -5.1 22.9
00:40 1015 29.97 844 24.92 -0.4 31.3 72 -4.9 23.2
00:45 1015 29.97 844 24.92 -0.4 31.3 71 -5 23
00:50 1015 29.97 844 24.92 -0.2 31.6 71 -5 23.1
00:55 1015 29.97 844 24.92 -0.1 31.8 70 -4.9 23.1
01:00 1015 29.97 844 24.92 0 32 70 -4.9 23.2
01:05 1015 29.97 844 24.92 -0.1 31.8 70 -4.8 23.3
01:10 1015 29.97 844 24.92 -0.2 31.7 69 -5.1 22.8
01:15 1015 29.97 844 24.92 -0.2 31.7 69 -5.3 22.5
01:20 1015 29.97 844 24.92 -0 32 65 -5.9 21.5
01:25 1015 29.97 844 24.92 -0.1 31.9 70 -4.9 23.1
01:30 1015 29.97 844 24.92 -0.5 31.2 73 -4.6 23.6
01:35 1015 29.97 844 24.92 -0.9 30.4 76 -4.6 23.6
01:40 1015 29.97 844 24.92 -1 30.2 76 -4.7 23.6
01:45 1015 29.97 844 24.92 -1.1 30.1 76 -4.7 23.6
01:50 1015 29.97 844 24.92 -1.1 30 76 -4.7 23.5
01:55 1015 29.97 844 24.92 -0.9 30.3 75 -4.8 23.3
02:00 1015 29.97 844 24.92 -0.7 30.8 73 -4.9 23.3
02:05 1015 29.97 844 24.92 -0.5 31.1 74 -4.6 23.7
02:10 1015 29.97 844 24.92 -0.6 30.9 75 -4.6 23.7
02:15 1015 29.97 844 24.92 -0.7 30.7 74 -4.8 23.4
02:20 1015 29.97 844 24.92 -0.5 31.1 71 -5.2 22.7
02:25 1015 29.97 844 24.92 -0.1 31.8 68 -5.3 22.4
02:30 1015 29.97 844 24.92 0 32.1 69 -5 23
02:35 1015 29.97 844 24.92 0 32 69 -5.1 22.9
02:40 1015 29.97 844 24.92 0.1 32.1 69 -5 23
02:45 1015 29.97 844 24.92 0 32.1 70 -4.9 23.2
02:50 1015 29.97 844 24.92 -0 32 69 -5 23.1
02:55 1015 29.97 844 24.92 -0 32 69 -5.1 22.9
03:00 1015 29.97 844 24.92 -0 31.9 70 -4.9 23.2
03:05 1015 29.97 844 24.92 -0.2 31.7 69 -5.1 22.8
03:10 1015 29.97 844 24.92 -0.2 31.6 69 -5.2 22.7
03:15 1015 29.97 844 24.92 -0.2 31.7 68 -5.4 22.2
03:20 1015 29.97 844 24.92 -0.1 31.9 66 -5.6 21.9
03:25 1015 29.97 844 24.92 -0 32 68 -5.3 22.4
03:30 1015 29.97 844 24.92 -0 32 65 -5.9 21.4
03:35 1015 29.97 844 24.92 0.3 32.5 64 -5.7 21.8
03:40 1015 29.97 844 24.92 0.4 32.8 64 -5.6 21.9
03:45 1015 29.97 844 24.92 0.6 33 64 -5.5 22
03:50 1015 29.97 844 24.92 0.6 33.1 64 -5.5 22.1
03:55 1015 29.97 844 24.92 0.6 33.1 64 -5.5 22.1
04:00 1015 29.97 844 24.92 0.7 33.2 64 -5.4 22.3
04:05 1015 29.97 844 24.92 0.7 33.3 64 -5.4 22.2
04:10 1015 29.97 844 24.92 0.7 33.3 64 -5.3 22.5
04:15 1015 29.97 844 24.92 0.6 33 65 -5.3 22.4
04:20 1015 29.97 845 24.95 0.5 32.9 65 -5.3 22.4
04:25 1015 29.97 845 24.95 0.5 32.8 65 -5.3 22.5
04:30 1016 30 845 24.95 0.4 32.7 67 -5.1 22.8
04:35 1016 30 845 24.95 0.5 32.9 66 -5.2 22.7
04:40 1016 30 845 24.95 0.6 33 66 -5.1 22.9
04:45 1016 30 845 24.95 0.6 33 66 -5.1 22.8
04:50 1016 30 845 24.95 0.7 33.3 65 -5.1 22.7
04:55 1016 30 845 24.95 1 33.8 64 -5.1 22.8
05:00 1016 30 845 24.95 1.2 34.2 62 -5.1 22.7
05:05 1016 30 845 24.95 1.4 34.6 62 -5 22.9
05:10 1016 30 845 24.95 1.5 34.7 62 -5 23.1
05:15 1016 30 845 24.95 1.5 34.6 62 -5 23
05:20 1016 30 845 24.95 1.6 34.9 61 -5.1 22.8
05:25 1016 30 845 24.95 1.8 35.3 61 -5 23.1
05:30 1016 30 845 24.95 1.8 35.3 61 -4.9 23.1
05:35 1016 30 845 24.95 1.7 35.1 61 -5 23
05:40 1016 30 845 24.95 1.7 35.1 61 -4.9 23.2
05:45 1016 30 845 24.95 1.6 34.8 62 -4.9 23.3
05:50 1016 30 845 24.95 1.4 34.4 64 -4.7 23.5
05:55 1016 30 846 24.98 1 33.9 65 -4.9 23.2
06:00 1016 30 846 24.98 1 33.8 65 -4.9 23.2
06:05 1016 30 846 24.98 1 33.8 65 -4.9 23.2
06:10 1016 30 846 24.98 1.1 34 64 -4.9 23.2
06:15 1016 30 846 24.98 1.1 33.9 65 -4.8 23.3
06:20 1016 30 846 24.98 1 33.7 65 -4.8 23.3
06:25 1016 30 846 24.98 0.9 33.6 65 -4.9 23.1
06:30 1016 30 846 24.98 0.9 33.6 65 -4.9 23.2
06:35 1016 30 846 24.98 0.8 33.5 65 -4.9 23.1
06:40 1016 30 846 24.98 1 33.9 62 -5.5 22.2
06:45 1016 30 846 24.98 1.8 35.2 60 -5.2 22.6
06:50 1016 30 846 24.98 2.1 35.7 59 -5.1 22.8
06:55 1016 30 845 24.95 2 35.6 60 -4.9 23.1
07:00 1016 30 845 24.95 1.7 35.1 60 -5.2 22.7
07:05 1016 30 846 24.98 1.8 35.3 59 -5.3 22.5
07:10 1016 30 846 24.98 2 35.5 59 -5.2 22.6
07:15 1016 30 846 24.98 2 35.6 59 -5.1 22.7
07:20 1016 30 846 24.98 2 35.5 59 -5.2 22.6
07:25 1016 30 846 24.98 2 35.7 59 -5.3 22.5
07:30 1017 30.03 846 24.98 2 35.7 59 -5.2 22.6
07:35 1017 30.03 846 24.98 2.1 35.8 58 -5.4 22.3
07:40 1017 30.03 846 24.98 2.1 35.8 58 -5.3 22.4
07:45 1017 30.03 846 24.98 2 35.7 58 -5.4 22.3
07:50 1017 30.03 846 24.98 2 35.7 57 -5.6 21.9
07:55 1017 30.03 846 24.98 2 35.7 58 -5.4 22.2
08:00 1017 30.03 846 24.98 1.6 34.9 62 -4.8 23.3
08:05 1017 30.03 846 24.98 1 33.8 63 -5.2 22.6
08:10 1017 30.03 846 24.98 1.1 33.9 62 -5.5 22.2
08:15 1017 30.03 846 24.98 1.3 34.3 61 -5.5 22.2
08:20 1017 30.03 846 24.98 1.4 34.5 62 -5.2 22.6
08:25 1017 30.03 846 24.98 1.2 34.1 63 -5.1 22.9
08:30 1017 30.03 846 24.98 1.2 34.2 61 -5.4 22.3
08:35 1017 30.03 846 24.98 1.6 34.9 61 -5.2 22.7
08:40 1017 30.03 846 24.98 1.4 34.6 62 -5 22.9
08:45 1017 30.03 846 24.98 1.2 34.2 62 -5.3 22.4
08:50 1017 30.03 846 24.98 1.4 34.5 62 -5 22.9
08:55 1017 30.03 846 24.98 1.2 34.1 63 -5.1 22.9
09:00 1017 30.03 846 24.98 1.2 34.1 62 -5.3 22.4
09:05 1017 30.03 846 24.98 1.4 34.6 61 -5.3 22.5
09:10 1017 30.03 846 24.98 1.5 34.6 60 -5.4 22.3
09:15 1017 30.03 846 24.98 1.4 34.6 61 -5.3 22.4
09:20 1017 30.03 846 24.98 1.4 34.6 60 -5.5 22.2
09:25 1017 30.03 846 24.98 1.5 34.7 60 -5.4 22.3
09:30 1017 30.03 846 24.98 1.5 34.8 60 -5.5 22.2
09:35 1017 30.03 846 24.98 1.4 34.5 60 -5.6 21.9
09:40 1017 30.03 846 24.98 1.6 34.9 58 -5.7 21.7
09:45 1017 30.03 846 24.98 2 35.6 57 -5.6 21.9
09:50 1017 30.03 846 24.98 2.2 36 57 -5.5 22.1
09:55 1017 30.03 846 24.98 2.4 36.3 56 -5.6 21.9
10:00 1017 30.03 846 24.98 2.6 36.8 55 -5.6 22
10:05 1017 30.03 846 24.98 3.1 37.6 53 -5.5 22.1
10:10 1017 30.03 846 24.98 3.1 37.5 55 -5.2 22.6
10:15 1017 30.03 846 24.98 2.5 36.5 56 -5.3 22.4
10:20 1017 30.03 846 24.98 2.4 36.3 56 -5.6 22
10:25 1017 30.03 846 24.98 3.1 37.5 54 -5.4 22.3
10:30 1017 30.03 846 24.98 3.7 38.6 51 -5.5 22.1
10:35 1017 30.03 846 24.98 3.6 38.5 53 -5 22.9
10:40 1017 30.03 847 25.01 3.7 38.6 51 -5.6 21.9
10:45 1017 30.03 847 25.01 4.1 39.3 50 -5.5 22.1
10:50 1018 30.06 847 25.01 4.6 40.3 48 -5.6 21.9
10:55 1018 30.06 847 25.01 4.8 40.7 47 -5.5 22.2
11:00 1018 30.06 847 25.01 5 41 47 -5.4 22.3
11:05 1018 30.06 847 25.01 5.3 41.5 46 -5.5 22
11:10 1018 30.06 847 25.01 5.6 42.1 45 -5.5 22.1
11:15 1018 30.06 847 25.01 5.7 42.3 45 -5.2 22.6
11:20 1018 30.06 847 25.01 5.9 42.6 44 -5.3 22.4
11:25 1018 30.06 847 25.01 5.7 42.2 47 -4.9 23.3
11:30 1018 30.06 847 25.01 5.4 41.8 46 -5.2 22.7
11:35 1018 30.06 847 25.01 5.3 41.5 48 -5 23
11:40 1018 30.06 847 25.01 5.6 42.1 45 -5.5 22.1
11:45 1018 30.06 847 25.01 5.1 41.1 49 -4.7 23.5
11:50 1017 30.03 847 25.01 4.5 40 50 -5.2 22.7
11:55 1017 30.03 847 25.01 5.5 41.9 44 -5.8 21.6
12:00 1017 30.03 847 25.01 5.5 41.9 47 -4.8 23.3
12:05 1017 30.03 846 24.98 4.7 40.4 50 -4.9 23.1
12:10 1017 30.03 846 24.98 4.6 40.4 48 -5.5 22.1
12:15 1017 30.03 846 24.98 5.3 41.5 46 -5.5 22.1
12:20 1017 30.03 846 24.98 5.1 41.2 46 -5.6 21.8
12:25 1017 30.03 846 24.98 4.9 40.9 47 -5.5 22
12:30 1017 30.03 846 24.98 5 41.1 46 -5.5 22
12:35 1017 30.03 846 24.98 5.8 42.4 44 -5.6 22
12:40 1016 30 846 24.98 6.6 43.9 41 -5.7 21.8
12:45 1016 30 846 24.98 5.8 42.5 45 -5.2 22.7
12:50 1016 30 845 24.95 5.2 41.4 45 -5.7 21.8
12:55 1016 30 845 24.95 5.6 42 44 -5.7 21.8
13:00 1016 30 845 24.95 5.5 41.9 43 -6.1 21
13:05 1016 30 845 24.95 5.8 42.4 41 -6.4 20.6
13:10 1016 30 845 24.95 6.7 44 40 -6.1 21.1
13:15 1016 30 845 24.95 6.2 43.2 41 -6 21.3
13:20 1016 30 845 24.95 5.9 42.5 41 -6.4 20.6
13:25 1016 30 845 24.95 6.4 43.5 39 -6.5 20.3
13:30 1016 30 845 24.95 6.4 43.4 40 -6.2 20.8
13:35 1015 29.97 845 24.95 6.2 43.2 41 -6.2 20.8
13:40 1015 29.97 844 24.92 5.8 42.5 41 -6.3 20.7
13:45 1015 29.97 844 24.92 5.8 42.5 41 -6.6 20.2
13:50 1015 29.97 844 24.92 6.1 42.9 40 -6.4 20.5
13:55 1015 29.97 844 24.92 5.8 42.4 42 -6.1 21.1
14:00 1015 29.97 844 24.92 6.2 43.2 39 -6.6 20.2
14:05 1015 29.97 844 24.92 6.3 43.4 39 -6.7 19.9
14:10 1015 29.97 844 24.92 6.3 43.4 39 -6.7 20
14:15 1015 29.97 844 24.92 6.3 43.4 38 -6.8 19.7
14:20 1015 29.97 844 24.92 6.3 43.3 39 -6.6 20
14:25 1014 29.94 844 24.92 6 42.8 39 -6.8 19.8
14:30 1014 29.94 844 24.92 6.1 43 39 -6.7 19.9
14:35 1014 29.94 844 24.92 6.7 44 39 -6.4 20.4
14:40 1014 29.94 844 24.92 6.7 44.1 38 -6.5 20.4
14:45 1014 29.94 843 24.89 6.9 44.4 37 -6.7 20
14:50 1014 29.94 843 24.89 7.1 44.9 36 -7 19.5
14:55 1014 29.94 843 24.89 6.9 44.4 39 -6.3 20.7
15:00 1014 29.94 843 24.89 6.6 43.8 38 -6.9 19.6
15:05 1014 29.94 843 24.89 6.6 43.8 38 -6.6 20.2
15:10 1014 29.94 843 24.89 6.9 44.4 37 -6.9 19.6
15:15 1014 29.94 843 24.89 7.2 44.9 35 -7.4 18.8
15:20 1014 29.94 843 24.89 7.4 45.3 33 -7.8 18
15:25 1014 29.94 843 24.89 7.5 45.6 34 -7.5 18.5
15:30 1013 29.91 843 24.89 7.7 45.8 33 -7.5 18.4
15:35 1013 29.91 842 24.86 7.5 45.6 33 -7.6 18.4
15:40 1013 29.91 842 24.86 7.3 45.1 34 -7.7 18.1
15:45 1013 29.91 842 24.86 7 44.6 34 -7.8 17.9
15:50 1013 29.91 842 24.86 7.2 44.9 33 -7.9 17.8
15:55 1013 29.91 842 24.86 7.1 44.7 34 -7.7 18.2
16:00 1013 29.91 842 24.86 7.2 44.9 34 -7.7 18.2
16:05 1013 29.91 842 24.86 7.3 45.1 35 -7 19.3
16:10 1013 29.91 842 24.86 7.1 44.8 35 -7.3 18.9
16:15 1013 29.91 842 24.86 7 44.5 34 -7.8 17.9
16:20 1013 29.91 842 24.86 6.9 44.4 35 -7.5 18.5
16:25 1012 29.88 842 24.86 6.8 44.2 35 -7.8 18
16:30 1012 29.88 841 24.83 6.7 44 35 -7.6 18.3
16:35 1012 29.88 841 24.83 6.5 43.7 37 -7.2 19.1
16:40 1012 29.88 841 24.83 6.3 43.4 37 -7.3 18.8
16:45 1012 29.88 842 24.86 6.5 43.6 37 -7.3 18.8
16:50 1012 29.88 842 24.86 6.5 43.7 38 -6.8 19.8
16:55 1013 29.91 842 24.86 6.3 43.4 39 -6.6 20.1
17:00 1013 29.91 842 24.86 6.3 43.4 38 -7 19.4
17:05 1013 29.91 842 24.86 6.3 43.3 39 -6.8 19.8
17:10 1013 29.91 842 24.86 6.1 43 40 -6.5 20.2
17:15 1013 29.91 842 24.86 6 42.8 40 -6.6 20.1
17:20 1013 29.91 842 24.86 5.9 42.6 42 -6.1 21
17:25 1013 29.91 842 24.86 5.5 41.9 44 -5.9 21.3
17:30 1013 29.91 842 24.86 5.4 41.8 41 -6.9 19.6
17:35 1013 29.91 842 24.86 5.6 42.1 34 -9 15.8
17:40 1013 29.91 842 24.86 6 42.7 34 -8.6 16.4
17:45 1013 29.91 842 24.86 5.9 42.7 35 -8.4 16.8
17:50 1013 29.91 842 24.86 5.9 42.6 36 -8 17.6
17:55 1012 29.88 842 24.86 5.9 42.5 37 -7.7 18.2
18:00 1012 29.88 841 24.83 5.8 42.4 38 -7.5 18.5
18:05 1012 29.88 841 24.83 5.8 42.4 39 -7.2 19
18:10 1012 29.88 841 24.83 5.8 42.5 37 -7.6 18.2
18:15 1012 29.88 841 24.83 5.7 42.3 38 -7.6 18.4
18:20 1012 29.88 841 24.83 5.7 42.2 38 -7.5 18.5
18:25 1012 29.88 841 24.83 5.6 42 39 -7.3 18.8
18:30 1012 29.88 841 24.83 5.6 42.1 39 -7.2 19
18:35 1012 29.88 841 24.83 5.6 42.1 40 -7 19.3
18:40 1012 29.88 841 24.83 5.5 42 40 -7.1 19.2
18:45 1012 29.88 841 24.83 5.4 41.8 41 -6.9 19.7
18:50 1012 29.88 841 24.83 5.1 41.3 43 -6.5 20.3
18:55 1012 29.88 841 24.83 4.9 40.8 46 -5.7 21.7
19:00 1012 29.88 841 24.83 4.8 40.6 47 -5.6 21.9
19:05 1012 29.88 841 24.83 4.6 40.4 46 -6 21.3
19:10 1012 29.88 841 24.83 4.6 40.3 46 -6.1 21
19:15 1012 29.88 841 24.83 4.4 40 46 -6.1 21.1
19:20 1012 29.88 841 24.83 4.6 40.2 45 -6.3 20.6
19:25 1012 29.88 841 24.83 4.6 40.3 45 -6.3 20.7
19:30 1012 29.88 841 24.83 5.1 41.1 43 -6.6 20.1
19:35 1012 29.88 841 24.83 5.5 42 43 -6.2 20.9
19:40 1012 29.88 841 24.83 5.4 41.6 44 -6 21.1
19:45 1012 29.88 841 24.83 5.3 41.6 44 -6.1 21.1
19:50 1012 29.88 841 24.83 5.3 41.6 44 -6 21.1
19:55 1012 29.88 841 24.83 5.4 41.7 44 -5.9 21.3
20:00 1012 29.88 841 24.83 5.4 41.7 43 -6.1 21
20:05 1012 29.88 841 24.83 5.6 42.1 43 -6 21.2
20:10 1012 29.88 841 24.83 5.7 42.2 44 -5.8 21.6
20:15 1012 29.88 841 24.83 5.7 42.2 44 -5.5 22.1
20:20 1012 29.88 841 24.83 5.4 41.7 45 -5.7 21.8
20:25 1012 29.88 841 24.83 5.2 41.3 45 -5.7 21.7
20:30 1012 29.88 841 24.83 5 41 45 -5.9 21.5
20:35 1012 29.88 841 24.83 4.9 40.8 45 -5.9 21.3
20:40 1012 29.88 841 24.83 5 41 45 -5.9 21.4
20:45 1012 29.88 841 24.83 5 41 45 -6 21.3
20:50 1012 29.88 841 24.83 5.1 41.2 46 -5.7 21.8
20:55 1012 29.88 841 24.83 5.1 41.1 46 -5.6 22
21:00 1012 29.88 841 24.83 5 41 47 -5.4 22.2
21:05 1012 29.88 841 24.83 5.1 41.2 48 -4.9 23.2
21:10 1011 29.85 841 24.83 5.5 41.9 49 -4.5 23.9
21:15 1011 29.85 841 24.83 5.9 42.6 48 -4.3 24.2
21:20 1011 29.85 841 24.83 6 42.8 48 -4.3 24.3
21:25 1012 29.88 841 24.83 6 42.9 47 -4.3 24.2
21:30 1011 29.85 841 24.83 6 42.9 47 -4.3 24.2
21:35 1011 29.85 841 24.83 6 42.8 47 -4.3 24.2
21:40 1011 29.85 841 24.83 5.9 42.6 48 -4.3 24.2
21:45 1011 29.85 841 24.83 5.7 42.3 48 -4.5 24
21:50 1011 29.85 841 24.83 5.7 42.2 49 -4.3 24.3
21:55 1011 29.85 841 24.83 5.6 42.2 49 -4.2 24.5
22:00 1011 29.85 841 24.83 5.6 42.2 49 -4.2 24.5
22:05 1012 29.88 841 24.83 5.7 42.2 50 -3.9 24.9
22:10 1012 29.88 841 24.83 5.5 41.9 50 -4 24.8
22:15 1012 29.88 841 24.83 5.1 41.3 50 -4.3 24.2
22:20 1012 29.88 841 24.83 4.9 40.9 50 -4.5 23.9
22:25 1012 29.88 841 24.83 4.8 40.7 51 -4.4 24
22:30 1012 29.88 841 24.83 5.1 41.1 51 -4.3 24.2
22:35 1011 29.85 841 24.83 5.4 41.6 49 -4.4 24.1
22:40 1011 29.85 841 24.83 5.7 42.3 48 -4.4 24.1
22:45 1011 29.85 841 24.83 5.9 42.7 48 -4.3 24.3
22:50 1011 29.85 841 24.83 6 42.8 47 -4.4 24.2
22:55 1011 29.85 841 24.83 6.1 42.9 48 -4.1 24.7
23:00 1012 29.88 841 24.83 5.9 42.6 49 -4.1 24.6
23:05 1012 29.88 841 24.83 6 42.8 48 -4.3 24.2
23:10 1012 29.88 841 24.83 6.1 43 48 -4.2 24.4
23:15 1012 29.88 841 24.83 6.2 43.1 47 -4.2 24.5
23:20 1012 29.88 841 24.83 5.9 42.7 50 -3.8 25.1
23:25 1012 29.88 841 24.83 5.4 41.7 51 -3.9 25
23:30 1012 29.88 841 24.83 5.2 41.3 51 -4 24.8
23:35 1012 29.88 841 24.83 5.1 41.3 52 -3.9 25
23:40 1012 29.88 841 24.83 5 41.1 52 -4 24.9
23:45 1012 29.88 841 24.83 5.1 41.2 51 -4.1 24.7
23:50 1012 29.88 841 24.83 5.1 41.1 52 -4 24.7
23:55 1012 29.88 841 24.83 5 41 52 -4.1 24.7
24:00 1012 29.88 841 24.83 4.9 40.9 51 -4.3 24.3